sensor_id;sensor_type;location;lat;lon;timestamp;P1;durP1;ratioP1;P2;durP2;ratioP2
3771;SDS011;1901;48.172;12.824;2022-11-20T00:01:04;40.97;;;25.33;;
3771;SDS011;1901;48.172;12.824;2022-11-20T00:03:31;51.27;;;26.50;;
3771;SDS011;1901;48.172;12.824;2022-11-20T00:05:59;46.73;;;25.90;;
3771;SDS011;1901;48.172;12.824;2022-11-20T00:08:26;49.53;;;25.80;;
3771;SDS011;1901;48.172;12.824;2022-11-20T00:10:53;45.00;;;23.97;;
3771;SDS011;1901;48.172;12.824;2022-11-20T00:13:20;45.27;;;24.00;;
3771;SDS011;1901;48.172;12.824;2022-11-20T00:15:50;48.47;;;25.47;;
3771;SDS011;1901;48.172;12.824;2022-11-20T00:18:23;45.43;;;25.80;;
3771;SDS011;1901;48.172;12.824;2022-11-20T00:20:50;51.57;;;26.77;;
3771;SDS011;1901;48.172;12.824;2022-11-20T00:23:17;46.90;;;24.57;;
3771;SDS011;1901;48.172;12.824;2022-11-20T00:25:44;42.03;;;23.10;;
3771;SDS011;1901;48.172;12.824;2022-11-20T00:28:11;42.00;;;24.83;;
3771;SDS011;1901;48.172;12.824;2022-11-20T00:30:38;33.60;;;20.30;;
3771;SDS011;1901;48.172;12.824;2022-11-20T00:33:07;36.90;;;20.17;;
3771;SDS011;1901;48.172;12.824;2022-11-20T00:35:34;31.17;;;20.37;;
3771;SDS011;1901;48.172;12.824;2022-11-20T00:38:01;36.70;;;20.60;;
3771;SDS011;1901;48.172;12.824;2022-11-20T00:40:29;36.70;;;21.57;;
3771;SDS011;1901;48.172;12.824;2022-11-20T00:42:56;32.37;;;19.27;;
3771;SDS011;1901;48.172;12.824;2022-11-20T00:45:23;33.50;;;20.40;;
3771;SDS011;1901;48.172;12.824;2022-11-20T00:47:50;40.77;;;20.43;;
3771;SDS011;1901;48.172;12.824;2022-11-20T00:50:18;34.50;;;20.23;;
3771;SDS011;1901;48.172;12.824;2022-11-20T00:52:46;35.10;;;20.53;;
3771;SDS011;1901;48.172;12.824;2022-11-20T00:55:13;36.17;;;21.47;;
3771;SDS011;1901;48.172;12.824;2022-11-20T00:57:40;35.80;;;20.60;;
3771;SDS011;1901;48.172;12.824;2022-11-20T01:00:07;32.03;;;20.20;;
3771;SDS011;1901;48.172;12.824;2022-11-20T01:02:35;18.43;;;13.07;;
3771;SDS011;1901;48.172;12.824;2022-11-20T01:05:02;14.00;;;8.13;;
3771;SDS011;1901;48.172;12.824;2022-11-20T01:07:31;11.03;;;6.13;;
3771;SDS011;1901;48.172;12.824;2022-11-20T01:09:58;8.77;;;5.03;;
3771;SDS011;1901;48.172;12.824;2022-11-20T01:12:25;9.67;;;5.60;;
3771;SDS011;1901;48.172;12.824;2022-11-20T01:14:53;11.00;;;6.70;;
3771;SDS011;1901;48.172;12.824;2022-11-20T01:17:20;7.00;;;4.43;;
3771;SDS011;1901;48.172;12.824;2022-11-20T01:19:48;10.17;;;5.17;;
3771;SDS011;1901;48.172;12.824;2022-11-20T01:22:15;8.20;;;5.13;;
3771;SDS011;1901;48.172;12.824;2022-11-20T01:24:44;8.00;;;4.87;;
3771;SDS011;1901;48.172;12.824;2022-11-20T01:27:11;9.80;;;6.20;;
3771;SDS011;1901;48.172;12.824;2022-11-20T01:29:38;5.40;;;4.67;;
3771;SDS011;1901;48.172;12.824;2022-11-20T01:32:05;10.37;;;5.63;;
3771;SDS011;1901;48.172;12.824;2022-11-20T01:34:32;5.83;;;5.27;;
3771;SDS011;1901;48.172;12.824;2022-11-20T01:36:59;7.57;;;4.60;;
3771;SDS011;1901;48.172;12.824;2022-11-20T01:39:27;7.17;;;4.80;;
3771;SDS011;1901;48.172;12.824;2022-11-20T01:41:55;6.77;;;4.90;;
3771;SDS011;1901;48.172;12.824;2022-11-20T01:44:43;9.43;;;4.90;;
3771;SDS011;1901;48.172;12.824;2022-11-20T01:47:12;6.07;;;4.90;;
3771;SDS011;1901;48.172;12.824;2022-11-20T01:49:40;6.60;;;4.90;;
3771;SDS011;1901;48.172;12.824;2022-11-20T01:52:11;4.57;;;3.43;;
3771;SDS011;1901;48.172;12.824;2022-11-20T01:54:42;6.63;;;4.33;;
3771;SDS011;1901;48.172;12.824;2022-11-20T01:57:12;5.03;;;4.07;;
3771;SDS011;1901;48.172;12.824;2022-11-20T01:59:41;11.03;;;3.70;;
3771;SDS011;1901;48.172;12.824;2022-11-20T02:02:11;5.43;;;4.00;;
3771;SDS011;1901;48.172;12.824;2022-11-20T02:04:38;8.13;;;4.43;;
3771;SDS011;1901;48.172;12.824;2022-11-20T02:07:05;10.00;;;4.33;;
3771;SDS011;1901;48.172;12.824;2022-11-20T02:09:32;8.67;;;3.67;;
3771;SDS011;1901;48.172;12.824;2022-11-20T02:12:00;4.73;;;4.20;;
3771;SDS011;1901;48.172;12.824;2022-11-20T02:14:28;7.40;;;4.50;;
3771;SDS011;1901;48.172;12.824;2022-11-20T02:16:55;6.23;;;4.60;;
3771;SDS011;1901;48.172;12.824;2022-11-20T02:19:22;6.30;;;4.03;;
3771;SDS011;1901;48.172;12.824;2022-11-20T02:21:53;8.60;;;5.67;;
3771;SDS011;1901;48.172;12.824;2022-11-20T02:24:23;9.73;;;5.90;;
3771;SDS011;1901;48.172;12.824;2022-11-20T02:26:50;5.40;;;4.57;;
3771;SDS011;1901;48.172;12.824;2022-11-20T02:29:19;5.13;;;3.97;;
3771;SDS011;1901;48.172;12.824;2022-11-20T02:31:48;4.90;;;3.70;;
3771;SDS011;1901;48.172;12.824;2022-11-20T02:34:15;5.00;;;4.30;;
3771;SDS011;1901;48.172;12.824;2022-11-20T02:36:43;4.00;;;3.00;;
3771;SDS011;1901;48.172;12.824;2022-11-20T02:39:11;6.53;;;4.50;;
3771;SDS011;1901;48.172;12.824;2022-11-20T02:41:43;5.80;;;3.80;;
3771;SDS011;1901;48.172;12.824;2022-11-20T02:44:10;3.93;;;3.53;;
3771;SDS011;1901;48.172;12.824;2022-11-20T02:46:37;5.63;;;3.97;;
3771;SDS011;1901;48.172;12.824;2022-11-20T02:49:04;5.17;;;3.33;;
3771;SDS011;1901;48.172;12.824;2022-11-20T02:51:31;4.97;;;3.80;;
3771;SDS011;1901;48.172;12.824;2022-11-20T02:53:59;7.67;;;4.60;;
3771;SDS011;1901;48.172;12.824;2022-11-20T02:56:26;4.10;;;3.27;;
3771;SDS011;1901;48.172;12.824;2022-11-20T02:58:55;7.23;;;3.67;;
3771;SDS011;1901;48.172;12.824;2022-11-20T03:01:22;5.50;;;3.87;;
3771;SDS011;1901;48.172;12.824;2022-11-20T03:03:49;7.07;;;4.73;;
3771;SDS011;1901;48.172;12.824;2022-11-20T03:06:17;8.33;;;3.90;;
3771;SDS011;1901;48.172;12.824;2022-11-20T03:08:44;4.50;;;3.20;;
3771;SDS011;1901;48.172;12.824;2022-11-20T03:11:11;7.43;;;3.97;;
3771;SDS011;1901;48.172;12.824;2022-11-20T03:13:38;5.47;;;4.27;;
3771;SDS011;1901;48.172;12.824;2022-11-20T03:16:10;6.17;;;4.70;;
3771;SDS011;1901;48.172;12.824;2022-11-20T03:18:38;6.63;;;3.60;;
3771;SDS011;1901;48.172;12.824;2022-11-20T03:21:05;5.30;;;4.27;;
3771;SDS011;1901;48.172;12.824;2022-11-20T03:23:33;5.87;;;4.37;;
3771;SDS011;1901;48.172;12.824;2022-11-20T03:26:07;6.50;;;3.70;;
3771;SDS011;1901;48.172;12.824;2022-11-20T03:28:34;6.63;;;3.60;;
3771;SDS011;1901;48.172;12.824;2022-11-20T03:31:04;4.60;;;4.20;;
3771;SDS011;1901;48.172;12.824;2022-11-20T03:33:33;8.87;;;4.13;;
3771;SDS011;1901;48.172;12.824;2022-11-20T03:36:01;5.17;;;3.83;;
3771;SDS011;1901;48.172;12.824;2022-11-20T03:38:28;6.30;;;4.80;;
3771;SDS011;1901;48.172;12.824;2022-11-20T03:40:57;6.57;;;4.10;;
3771;SDS011;1901;48.172;12.824;2022-11-20T03:43:25;5.73;;;4.43;;
3771;SDS011;1901;48.172;12.824;2022-11-20T03:45:52;6.83;;;4.70;;
3771;SDS011;1901;48.172;12.824;2022-11-20T03:48:19;5.20;;;4.17;;
3771;SDS011;1901;48.172;12.824;2022-11-20T03:50:48;4.97;;;3.90;;
3771;SDS011;1901;48.172;12.824;2022-11-20T03:53:15;5.47;;;3.80;;
3771;SDS011;1901;48.172;12.824;2022-11-20T03:55:42;4.47;;;3.50;;
3771;SDS011;1901;48.172;12.824;2022-11-20T03:58:09;6.17;;;4.67;;
3771;SDS011;1901;48.172;12.824;2022-11-20T04:00:38;9.60;;;4.47;;
3771;SDS011;1901;48.172;12.824;2022-11-20T04:03:05;5.73;;;4.00;;
3771;SDS011;1901;48.172;12.824;2022-11-20T04:05:33;5.47;;;4.40;;
3771;SDS011;1901;48.172;12.824;2022-11-20T04:08:01;6.10;;;4.13;;
3771;SDS011;1901;48.172;12.824;2022-11-20T04:10:28;6.00;;;4.00;;
3771;SDS011;1901;48.172;12.824;2022-11-20T04:12:56;5.73;;;4.30;;
3771;SDS011;1901;48.172;12.824;2022-11-20T04:15:23;9.00;;;4.63;;
3771;SDS011;1901;48.172;12.824;2022-11-20T04:17:50;7.57;;;4.57;;
3771;SDS011;1901;48.172;12.824;2022-11-20T04:20:17;11.00;;;5.20;;
3771;SDS011;1901;48.172;12.824;2022-11-20T04:22:44;8.83;;;4.70;;
3771;SDS011;1901;48.172;12.824;2022-11-20T04:25:13;4.60;;;4.00;;
3771;SDS011;1901;48.172;12.824;2022-11-20T04:27:40;6.60;;;5.43;;
3771;SDS011;1901;48.172;12.824;2022-11-20T04:30:07;9.77;;;5.83;;
3771;SDS011;1901;48.172;12.824;2022-11-20T04:32:35;8.70;;;5.10;;
3771;SDS011;1901;48.172;12.824;2022-11-20T04:35:02;4.80;;;4.30;;
3771;SDS011;1901;48.172;12.824;2022-11-20T04:37:29;9.20;;;5.40;;
3771;SDS011;1901;48.172;12.824;2022-11-20T04:39:56;4.50;;;3.87;;
3771;SDS011;1901;48.172;12.824;2022-11-20T04:42:25;4.90;;;4.10;;
3771;SDS011;1901;48.172;12.824;2022-11-20T04:44:55;12.60;;;5.40;;
3771;SDS011;1901;48.172;12.824;2022-11-20T04:47:22;7.37;;;5.20;;
3771;SDS011;1901;48.172;12.824;2022-11-20T04:49:49;6.27;;;4.47;;
3771;SDS011;1901;48.172;12.824;2022-11-20T04:52:17;5.07;;;3.80;;
3771;SDS011;1901;48.172;12.824;2022-11-20T04:54:44;5.93;;;4.90;;
3771;SDS011;1901;48.172;12.824;2022-11-20T04:57:12;5.30;;;3.67;;
3771;SDS011;1901;48.172;12.824;2022-11-20T04:59:41;9.87;;;6.53;;
3771;SDS011;1901;48.172;12.824;2022-11-20T05:02:08;7.50;;;4.63;;
3771;SDS011;1901;48.172;12.824;2022-11-20T05:04:35;4.80;;;3.63;;
3771;SDS011;1901;48.172;12.824;2022-11-20T05:07:02;4.77;;;3.43;;
3771;SDS011;1901;48.172;12.824;2022-11-20T05:09:29;4.80;;;3.23;;
3771;SDS011;1901;48.172;12.824;2022-11-20T05:11:57;6.37;;;4.83;;
3771;SDS011;1901;48.172;12.824;2022-11-20T05:14:24;5.07;;;3.93;;
3771;SDS011;1901;48.172;12.824;2022-11-20T05:16:53;6.13;;;3.70;;
3771;SDS011;1901;48.172;12.824;2022-11-20T05:19:20;6.00;;;4.07;;
3771;SDS011;1901;48.172;12.824;2022-11-20T05:21:47;7.40;;;4.87;;
3771;SDS011;1901;48.172;12.824;2022-11-20T05:24:14;4.40;;;4.00;;
3771;SDS011;1901;48.172;12.824;2022-11-20T05:26:41;5.20;;;4.53;;
3771;SDS011;1901;48.172;12.824;2022-11-20T05:29:09;8.23;;;4.13;;
3771;SDS011;1901;48.172;12.824;2022-11-20T05:31:38;6.60;;;3.90;;
3771;SDS011;1901;48.172;12.824;2022-11-20T05:34:06;9.13;;;4.63;;
3771;SDS011;1901;48.172;12.824;2022-11-20T05:36:34;7.83;;;4.33;;
3771;SDS011;1901;48.172;12.824;2022-11-20T05:39:01;6.27;;;4.10;;
3771;SDS011;1901;48.172;12.824;2022-11-20T05:41:28;4.40;;;3.13;;
3771;SDS011;1901;48.172;12.824;2022-11-20T05:43:56;4.20;;;3.73;;
3771;SDS011;1901;48.172;12.824;2022-11-20T05:46:24;6.20;;;3.90;;
3771;SDS011;1901;48.172;12.824;2022-11-20T05:48:51;6.23;;;4.50;;
3771;SDS011;1901;48.172;12.824;2022-11-20T05:51:19;7.77;;;4.83;;
3771;SDS011;1901;48.172;12.824;2022-11-20T05:53:46;17.33;;;7.50;;
3771;SDS011;1901;48.172;12.824;2022-11-20T05:56:14;8.80;;;5.17;;
3771;SDS011;1901;48.172;12.824;2022-11-20T05:58:42;8.23;;;4.47;;
3771;SDS011;1901;48.172;12.824;2022-11-20T06:01:10;7.50;;;4.80;;
3771;SDS011;1901;48.172;12.824;2022-11-20T06:03:38;5.63;;;4.33;;
3771;SDS011;1901;48.172;12.824;2022-11-20T06:06:06;5.27;;;4.20;;
3771;SDS011;1901;48.172;12.824;2022-11-20T06:08:34;4.83;;;3.70;;
3771;SDS011;1901;48.172;12.824;2022-11-20T06:11:05;6.10;;;5.13;;
3771;SDS011;1901;48.172;12.824;2022-11-20T06:13:32;7.37;;;4.77;;
3771;SDS011;1901;48.172;12.824;2022-11-20T06:15:59;9.87;;;7.10;;
3771;SDS011;1901;48.172;12.824;2022-11-20T06:18:27;8.67;;;6.07;;
3771;SDS011;1901;48.172;12.824;2022-11-20T06:21:01;5.73;;;4.03;;
3771;SDS011;1901;48.172;12.824;2022-11-20T06:23:29;6.37;;;3.80;;
3771;SDS011;1901;48.172;12.824;2022-11-20T06:25:58;6.50;;;4.10;;
3771;SDS011;1901;48.172;12.824;2022-11-20T06:28:25;5.97;;;4.73;;
3771;SDS011;1901;48.172;12.824;2022-11-20T06:30:52;5.77;;;3.97;;
3771;SDS011;1901;48.172;12.824;2022-11-20T06:33:19;5.10;;;4.10;;
3771;SDS011;1901;48.172;12.824;2022-11-20T06:35:46;7.27;;;4.70;;
3771;SDS011;1901;48.172;12.824;2022-11-20T06:38:13;5.57;;;4.30;;
3771;SDS011;1901;48.172;12.824;2022-11-20T06:40:41;4.57;;;3.83;;
3771;SDS011;1901;48.172;12.824;2022-11-20T06:43:09;5.73;;;5.13;;
3771;SDS011;1901;48.172;12.824;2022-11-20T06:45:37;8.90;;;5.23;;
3771;SDS011;1901;48.172;12.824;2022-11-20T06:48:04;5.93;;;4.27;;
3771;SDS011;1901;48.172;12.824;2022-11-20T06:50:31;8.73;;;4.50;;
3771;SDS011;1901;48.172;12.824;2022-11-20T06:53:00;7.00;;;4.20;;
3771;SDS011;1901;48.172;12.824;2022-11-20T06:55:28;7.03;;;3.90;;
3771;SDS011;1901;48.172;12.824;2022-11-20T06:57:55;5.13;;;4.30;;
3771;SDS011;1901;48.172;12.824;2022-11-20T07:00:24;5.33;;;4.17;;
3771;SDS011;1901;48.172;12.824;2022-11-20T07:02:51;6.87;;;4.57;;
3771;SDS011;1901;48.172;12.824;2022-11-20T07:05:18;6.73;;;4.83;;
3771;SDS011;1901;48.172;12.824;2022-11-20T07:07:45;5.87;;;4.23;;
3771;SDS011;1901;48.172;12.824;2022-11-20T07:10:13;5.70;;;4.60;;
3771;SDS011;1901;48.172;12.824;2022-11-20T07:12:40;5.43;;;4.00;;
3771;SDS011;1901;48.172;12.824;2022-11-20T07:15:07;4.77;;;3.53;;
3771;SDS011;1901;48.172;12.824;2022-11-20T07:17:36;6.00;;;4.33;;
3771;SDS011;1901;48.172;12.824;2022-11-20T07:20:03;4.63;;;4.13;;
3771;SDS011;1901;48.172;12.824;2022-11-20T07:22:30;6.17;;;4.10;;
3771;SDS011;1901;48.172;12.824;2022-11-20T07:24:57;5.10;;;2.83;;
3771;SDS011;1901;48.172;12.824;2022-11-20T07:27:25;4.70;;;4.20;;
3771;SDS011;1901;48.172;12.824;2022-11-20T07:29:52;4.50;;;4.00;;
3771;SDS011;1901;48.172;12.824;2022-11-20T07:32:19;5.80;;;4.27;;
3771;SDS011;1901;48.172;12.824;2022-11-20T07:34:47;5.87;;;4.27;;
3771;SDS011;1901;48.172;12.824;2022-11-20T07:37:15;8.00;;;4.67;;
3771;SDS011;1901;48.172;12.824;2022-11-20T07:39:42;5.23;;;4.63;;
3771;SDS011;1901;48.172;12.824;2022-11-20T07:42:09;6.73;;;4.70;;
3771;SDS011;1901;48.172;12.824;2022-11-20T07:44:37;6.83;;;4.53;;
3771;SDS011;1901;48.172;12.824;2022-11-20T07:47:04;7.93;;;5.00;;
3771;SDS011;1901;48.172;12.824;2022-11-20T07:49:31;4.83;;;4.03;;
3771;SDS011;1901;48.172;12.824;2022-11-20T07:52:00;6.23;;;4.30;;
3771;SDS011;1901;48.172;12.824;2022-11-20T07:54:27;7.23;;;4.10;;
3771;SDS011;1901;48.172;12.824;2022-11-20T07:56:54;11.33;;;5.30;;
3771;SDS011;1901;48.172;12.824;2022-11-20T07:59:21;7.33;;;4.70;;
3771;SDS011;1901;48.172;12.824;2022-11-20T08:01:48;4.93;;;4.10;;
3771;SDS011;1901;48.172;12.824;2022-11-20T08:04:16;8.50;;;5.87;;
3771;SDS011;1901;48.172;12.824;2022-11-20T08:06:43;6.20;;;4.77;;
3771;SDS011;1901;48.172;12.824;2022-11-20T08:09:12;8.90;;;5.63;;
3771;SDS011;1901;48.172;12.824;2022-11-20T08:11:39;6.60;;;4.70;;
3771;SDS011;1901;48.172;12.824;2022-11-20T08:14:23;9.27;;;5.77;;
3771;SDS011;1901;48.172;12.824;2022-11-20T08:16:52;6.60;;;5.00;;
3771;SDS011;1901;48.172;12.824;2022-11-20T08:19:19;6.80;;;5.20;;
3771;SDS011;1901;48.172;12.824;2022-11-20T08:21:46;7.57;;;5.50;;
3771;SDS011;1901;48.172;12.824;2022-11-20T08:24:15;6.03;;;5.27;;
3771;SDS011;1901;48.172;12.824;2022-11-20T08:26:42;8.13;;;5.80;;
3771;SDS011;1901;48.172;12.824;2022-11-20T08:29:09;6.27;;;4.83;;
3771;SDS011;1901;48.172;12.824;2022-11-20T08:31:36;9.17;;;4.13;;
3771;SDS011;1901;48.172;12.824;2022-11-20T08:34:03;5.53;;;4.90;;
3771;SDS011;1901;48.172;12.824;2022-11-20T08:36:32;6.83;;;4.40;;
3771;SDS011;1901;48.172;12.824;2022-11-20T08:38:59;4.10;;;3.70;;
3771;SDS011;1901;48.172;12.824;2022-11-20T08:41:28;5.17;;;3.87;;
3771;SDS011;1901;48.172;12.824;2022-11-20T08:43:58;6.20;;;4.70;;
3771;SDS011;1901;48.172;12.824;2022-11-20T08:46:27;6.37;;;3.80;;
3771;SDS011;1901;48.172;12.824;2022-11-20T08:48:54;4.90;;;3.63;;
3771;SDS011;1901;48.172;12.824;2022-11-20T08:51:21;5.07;;;4.40;;
3771;SDS011;1901;48.172;12.824;2022-11-20T08:53:48;5.80;;;3.83;;
3771;SDS011;1901;48.172;12.824;2022-11-20T08:56:15;4.27;;;3.50;;
3771;SDS011;1901;48.172;12.824;2022-11-20T08:58:44;4.53;;;3.07;;
3771;SDS011;1901;48.172;12.824;2022-11-20T09:01:11;2.97;;;2.23;;
3771;SDS011;1901;48.172;12.824;2022-11-20T09:03:38;3.17;;;2.60;;
3771;SDS011;1901;48.172;12.824;2022-11-20T09:06:07;2.77;;;2.47;;
3771;SDS011;1901;48.172;12.824;2022-11-20T09:08:34;2.83;;;2.40;;
3771;SDS011;1901;48.172;12.824;2022-11-20T09:11:02;3.70;;;2.97;;
3771;SDS011;1901;48.172;12.824;2022-11-20T09:13:30;3.70;;;2.67;;
3771;SDS011;1901;48.172;12.824;2022-11-20T09:15:59;3.40;;;3.00;;
3771;SDS011;1901;48.172;12.824;2022-11-20T09:18:27;7.50;;;5.13;;
3771;SDS011;1901;48.172;12.824;2022-11-20T09:20:56;3.23;;;2.60;;
3771;SDS011;1901;48.172;12.824;2022-11-20T09:23:24;3.70;;;2.47;;
3771;SDS011;1901;48.172;12.824;2022-11-20T09:25:51;2.90;;;2.60;;
3771;SDS011;1901;48.172;12.824;2022-11-20T09:28:20;3.20;;;2.47;;
3771;SDS011;1901;48.172;12.824;2022-11-20T09:30:47;2.57;;;2.37;;
3771;SDS011;1901;48.172;12.824;2022-11-20T09:33:16;3.23;;;2.90;;
3771;SDS011;1901;48.172;12.824;2022-11-20T09:35:44;3.13;;;2.60;;
3771;SDS011;1901;48.172;12.824;2022-11-20T09:38:11;3.70;;;2.67;;
3771;SDS011;1901;48.172;12.824;2022-11-20T09:40:40;3.90;;;2.17;;
3771;SDS011;1901;48.172;12.824;2022-11-20T09:43:11;2.60;;;2.20;;
3771;SDS011;1901;48.172;12.824;2022-11-20T09:45:44;2.73;;;2.33;;
3771;SDS011;1901;48.172;12.824;2022-11-20T09:48:20;2.37;;;2.17;;
3771;SDS011;1901;48.172;12.824;2022-11-20T09:50:50;2.97;;;2.57;;
3771;SDS011;1901;48.172;12.824;2022-11-20T09:53:22;3.17;;;2.43;;
3771;SDS011;1901;48.172;12.824;2022-11-20T09:55:51;4.90;;;2.67;;
3771;SDS011;1901;48.172;12.824;2022-11-20T09:58:22;3.90;;;3.50;;
3771;SDS011;1901;48.172;12.824;2022-11-20T10:00:54;7.23;;;4.77;;
3771;SDS011;1901;48.172;12.824;2022-11-20T10:03:26;3.00;;;2.43;;
3771;SDS011;1901;48.172;12.824;2022-11-20T10:05:57;3.43;;;2.40;;
3771;SDS011;1901;48.172;12.824;2022-11-20T10:08:28;5.07;;;3.07;;
3771;SDS011;1901;48.172;12.824;2022-11-20T10:10:58;2.40;;;2.20;;
3771;SDS011;1901;48.172;12.824;2022-11-20T10:13:33;2.33;;;2.10;;
3771;SDS011;1901;48.172;12.824;2022-11-20T10:16:07;2.40;;;1.80;;
3771;SDS011;1901;48.172;12.824;2022-11-20T10:18:42;2.77;;;2.10;;
3771;SDS011;1901;48.172;12.824;2022-11-20T10:21:13;2.60;;;1.90;;
3771;SDS011;1901;48.172;12.824;2022-11-20T10:23:57;2.10;;;1.77;;
3771;SDS011;1901;48.172;12.824;2022-11-20T10:26:28;4.10;;;2.50;;
3771;SDS011;1901;48.172;12.824;2022-11-20T10:29:01;2.83;;;1.80;;
3771;SDS011;1901;48.172;12.824;2022-11-20T10:31:33;4.17;;;2.53;;
3771;SDS011;1901;48.172;12.824;2022-11-20T10:34:05;2.30;;;1.73;;
3771;SDS011;1901;48.172;12.824;2022-11-20T10:36:34;2.33;;;1.80;;
3771;SDS011;1901;48.172;12.824;2022-11-20T10:39:04;3.23;;;1.80;;
3771;SDS011;1901;48.172;12.824;2022-11-20T10:41:32;2.87;;;2.20;;
3771;SDS011;1901;48.172;12.824;2022-11-20T10:44:02;5.60;;;1.93;;
3771;SDS011;1901;48.172;12.824;2022-11-20T10:46:34;2.40;;;2.07;;
3771;SDS011;1901;48.172;12.824;2022-11-20T10:49:09;3.00;;;1.80;;
3771;SDS011;1901;48.172;12.824;2022-11-20T10:51:39;2.20;;;1.70;;
3771;SDS011;1901;48.172;12.824;2022-11-20T10:54:12;3.77;;;2.13;;
3771;SDS011;1901;48.172;12.824;2022-11-20T10:56:45;2.50;;;2.03;;
3771;SDS011;1901;48.172;12.824;2022-11-20T10:59:23;2.63;;;2.43;;
3771;SDS011;1901;48.172;12.824;2022-11-20T11:01:53;2.53;;;2.10;;
3771;SDS011;1901;48.172;12.824;2022-11-20T11:04:26;1.93;;;1.67;;
3771;SDS011;1901;48.172;12.824;2022-11-20T11:06:57;3.37;;;2.00;;
3771;SDS011;1901;48.172;12.824;2022-11-20T11:09:29;1.83;;;1.50;;
3771;SDS011;1901;48.172;12.824;2022-11-20T11:11:59;3.77;;;2.17;;
3771;SDS011;1901;48.172;12.824;2022-11-20T11:14:26;3.30;;;3.00;;
3771;SDS011;1901;48.172;12.824;2022-11-20T11:16:54;2.67;;;2.10;;
3771;SDS011;1901;48.172;12.824;2022-11-20T11:19:22;2.33;;;2.03;;
3771;SDS011;1901;48.172;12.824;2022-11-20T11:21:52;6.50;;;3.70;;
3771;SDS011;1901;48.172;12.824;2022-11-20T11:24:21;3.70;;;2.97;;
3771;SDS011;1901;48.172;12.824;2022-11-20T11:26:52;5.00;;;2.57;;
3771;SDS011;1901;48.172;12.824;2022-11-20T11:29:19;3.80;;;2.57;;
3771;SDS011;1901;48.172;12.824;2022-11-20T11:31:46;4.47;;;2.60;;
3771;SDS011;1901;48.172;12.824;2022-11-20T11:34:14;3.30;;;2.50;;
3771;SDS011;1901;48.172;12.824;2022-11-20T11:36:42;4.43;;;2.43;;
3771;SDS011;1901;48.172;12.824;2022-11-20T11:39:13;5.43;;;2.60;;
3771;SDS011;1901;48.172;12.824;2022-11-20T11:41:41;3.83;;;1.90;;
3771;SDS011;1901;48.172;12.824;2022-11-20T11:44:14;2.70;;;2.03;;
3771;SDS011;1901;48.172;12.824;2022-11-20T11:47:00;2.23;;;1.50;;
3771;SDS011;1901;48.172;12.824;2022-11-20T11:49:27;2.17;;;1.60;;
3771;SDS011;1901;48.172;12.824;2022-11-20T11:51:58;2.40;;;1.70;;
3771;SDS011;1901;48.172;12.824;2022-11-20T11:54:29;2.40;;;1.53;;
3771;SDS011;1901;48.172;12.824;2022-11-20T11:56:58;1.90;;;1.40;;
3771;SDS011;1901;48.172;12.824;2022-11-20T11:59:28;2.33;;;1.70;;
3771;SDS011;1901;48.172;12.824;2022-11-20T12:02:01;2.70;;;1.67;;
3771;SDS011;1901;48.172;12.824;2022-11-20T12:04:37;2.47;;;2.03;;
3771;SDS011;1901;48.172;12.824;2022-11-20T12:07:08;6.00;;;3.70;;
3771;SDS011;1901;48.172;12.824;2022-11-20T12:09:41;2.60;;;2.17;;
3771;SDS011;1901;48.172;12.824;2022-11-20T12:12:11;3.97;;;2.70;;
3771;SDS011;1901;48.172;12.824;2022-11-20T12:14:41;5.37;;;3.60;;
3771;SDS011;1901;48.172;12.824;2022-11-20T12:17:09;14.53;;;6.13;;
3771;SDS011;1901;48.172;12.824;2022-11-20T12:19:37;4.47;;;2.93;;
3771;SDS011;1901;48.172;12.824;2022-11-20T12:22:05;8.17;;;3.93;;
3771;SDS011;1901;48.172;12.824;2022-11-20T12:27:31;5.63;;;2.27;;
3771;SDS011;1901;48.172;12.824;2022-11-20T12:30:03;9.27;;;3.07;;
3771;SDS011;1901;48.172;12.824;2022-11-20T12:32:37;14.70;;;6.77;;
3771;SDS011;1901;48.172;12.824;2022-11-20T12:35:15;5.30;;;2.50;;
3771;SDS011;1901;48.172;12.824;2022-11-20T12:37:45;2.03;;;1.83;;
3771;SDS011;1901;48.172;12.824;2022-11-20T12:40:18;1.80;;;1.50;;
3771;SDS011;1901;48.172;12.824;2022-11-20T12:42:50;1.90;;;1.50;;
3771;SDS011;1901;48.172;12.824;2022-11-20T12:45:45;2.80;;;2.10;;
3771;SDS011;1901;48.172;12.824;2022-11-20T12:48:22;2.90;;;1.90;;
3771;SDS011;1901;48.172;12.824;2022-11-20T12:50:57;3.80;;;2.50;;
3771;SDS011;1901;48.172;12.824;2022-11-20T12:53:30;8.20;;;5.37;;
3771;SDS011;1901;48.172;12.824;2022-11-20T12:56:02;6.90;;;4.40;;
3771;SDS011;1901;48.172;12.824;2022-11-20T12:58:35;3.60;;;3.30;;
3771;SDS011;1901;48.172;12.824;2022-11-20T13:01:05;3.70;;;2.77;;
3771;SDS011;1901;48.172;12.824;2022-11-20T13:03:37;3.03;;;2.50;;
3771;SDS011;1901;48.172;12.824;2022-11-20T13:06:06;5.37;;;3.10;;
3771;SDS011;1901;48.172;12.824;2022-11-20T13:08:38;3.00;;;2.40;;
3771;SDS011;1901;48.172;12.824;2022-11-20T13:11:08;4.60;;;3.13;;
3771;SDS011;1901;48.172;12.824;2022-11-20T13:13:42;5.13;;;2.63;;
3771;SDS011;1901;48.172;12.824;2022-11-20T13:16:10;3.63;;;1.87;;
3771;SDS011;1901;48.172;12.824;2022-11-20T13:18:41;3.23;;;2.07;;
3771;SDS011;1901;48.172;12.824;2022-11-20T13:21:14;2.83;;;2.20;;
3771;SDS011;1901;48.172;12.824;2022-11-20T13:23:41;3.20;;;2.07;;
3771;SDS011;1901;48.172;12.824;2022-11-20T13:26:14;5.67;;;1.87;;
3771;SDS011;1901;48.172;12.824;2022-11-20T13:28:43;4.23;;;1.30;;
3771;SDS011;1901;48.172;12.824;2022-11-20T13:31:23;3.90;;;2.13;;
3771;SDS011;1901;48.172;12.824;2022-11-20T13:33:51;1.93;;;1.30;;
3771;SDS011;1901;48.172;12.824;2022-11-20T13:36:22;3.60;;;2.20;;
3771;SDS011;1901;48.172;12.824;2022-11-20T13:38:50;2.13;;;1.70;;
3771;SDS011;1901;48.172;12.824;2022-11-20T13:41:22;2.20;;;1.60;;
3771;SDS011;1901;48.172;12.824;2022-11-20T13:44:04;3.63;;;1.93;;
3771;SDS011;1901;48.172;12.824;2022-11-20T13:46:36;2.70;;;1.50;;
3771;SDS011;1901;48.172;12.824;2022-11-20T13:49:06;3.70;;;2.33;;
3771;SDS011;1901;48.172;12.824;2022-11-20T13:51:36;3.93;;;1.50;;
3771;SDS011;1901;48.172;12.824;2022-11-20T13:54:13;2.47;;;1.60;;
3771;SDS011;1901;48.172;12.824;2022-11-20T13:56:47;2.20;;;1.73;;
3771;SDS011;1901;48.172;12.824;2022-11-20T13:59:21;2.80;;;1.60;;
3771;SDS011;1901;48.172;12.824;2022-11-20T14:01:53;1.60;;;1.40;;
3771;SDS011;1901;48.172;12.824;2022-11-20T14:04:27;2.33;;;1.70;;
3771;SDS011;1901;48.172;12.824;2022-11-20T14:06:55;4.13;;;2.40;;
3771;SDS011;1901;48.172;12.824;2022-11-20T14:09:26;11.13;;;2.30;;
3771;SDS011;1901;48.172;12.824;2022-11-20T14:11:54;3.53;;;2.40;;
3771;SDS011;1901;48.172;12.824;2022-11-20T14:14:23;1.93;;;1.50;;
3771;SDS011;1901;48.172;12.824;2022-11-20T14:16:52;6.27;;;2.40;;
3771;SDS011;1901;48.172;12.824;2022-11-20T14:19:25;2.23;;;2.00;;
3771;SDS011;1901;48.172;12.824;2022-11-20T14:21:53;3.30;;;2.00;;
3771;SDS011;1901;48.172;12.824;2022-11-20T14:24:21;3.30;;;2.50;;
3771;SDS011;1901;48.172;12.824;2022-11-20T14:26:49;5.10;;;3.57;;
3771;SDS011;1901;48.172;12.824;2022-11-20T14:29:17;11.50;;;9.30;;
3771;SDS011;1901;48.172;12.824;2022-11-20T14:31:47;8.97;;;6.57;;
3771;SDS011;1901;48.172;12.824;2022-11-20T14:34:15;6.33;;;4.30;;
3771;SDS011;1901;48.172;12.824;2022-11-20T14:36:43;5.20;;;3.30;;
3771;SDS011;1901;48.172;12.824;2022-11-20T14:39:11;6.47;;;3.17;;
3771;SDS011;1901;48.172;12.824;2022-11-20T14:41:49;19.90;;;10.83;;
3771;SDS011;1901;48.172;12.824;2022-11-20T14:44:16;10.17;;;5.20;;
3771;SDS011;1901;48.172;12.824;2022-11-20T14:46:44;7.17;;;4.60;;
3771;SDS011;1901;48.172;12.824;2022-11-20T14:49:12;7.47;;;5.50;;
3771;SDS011;1901;48.172;12.824;2022-11-20T14:51:39;9.20;;;5.40;;
3771;SDS011;1901;48.172;12.824;2022-11-20T14:54:08;9.37;;;7.03;;
3771;SDS011;1901;48.172;12.824;2022-11-20T14:56:35;6.73;;;4.80;;
3771;SDS011;1901;48.172;12.824;2022-11-20T14:59:02;4.70;;;3.53;;
3771;SDS011;1901;48.172;12.824;2022-11-20T15:01:30;4.63;;;2.60;;
3771;SDS011;1901;48.172;12.824;2022-11-20T15:03:59;3.03;;;2.50;;
3771;SDS011;1901;48.172;12.824;2022-11-20T15:06:28;4.87;;;3.33;;
3771;SDS011;1901;48.172;12.824;2022-11-20T15:08:56;8.60;;;2.60;;
3771;SDS011;1901;48.172;12.824;2022-11-20T15:11:27;3.60;;;2.60;;